Time;durP1;ratioP1;P1;durP2;ratioP2;P2;SDS_P1;SDS_P2;PMS_P1;PMS_P2;Temp;Humidity;BMP_temperature;BMP_pressure;BME280_temperature;BME280_humidity;BME280_pressure;Samples;Min_cycle;Max_cycle;Signal;HPM_P1;HPM_P2
2022/01/26 00:07:19;;;;;;;180.80;27.73;;;4.00;99.90;;;;;;4857437;29;20045;-65
2022/01/26 00:09:44;;;;;;;210.02;28.25;;;4.00;99.90;;;;;;4842293;29;20032;-65
2022/01/26 00:12:10;;;;;;;168.45;25.95;;;4.00;99.90;;;;;;4858358;29;20070;-64
2022/01/26 00:14:38;;;;;;;172.50;27.50;;;4.00;99.90;;;;;;4863950;29;20537;-64
2022/01/26 00:17:04;;;;;;;187.27;26.30;;;4.00;99.90;;;;;;4841584;29;20617;-64
2022/01/26 00:19:45;;;;;;;173.43;27.08;;;4.00;99.90;;;;;;4858605;29;20041;-64
2022/01/26 00:22:11;;;;;;;169.50;25.92;;;4.00;99.90;;;;;;4840892;29;20557;-65
2022/01/26 00:27:29;;;;;;;160.75;26.30;;;4.00;99.90;;;;;;4850671;29;20037;-65
2022/01/26 00:31:13;;;;;;;163.35;25.92;;;4.00;99.90;;;;;;4863955;29;20018;-65
2022/01/26 00:34:17;;;;;;;160.32;25.70;;;4.00;99.90;;;;;;4849412;29;20360;-65
2022/01/26 00:38:39;;;;;;;177.55;26.73;;;3.90;99.90;;;;;;4858661;29;20137;-65
2022/01/26 00:41:08;;;;;;;177.60;26.27;;;4.00;99.90;;;;;;4860223;29;20109;-65
2022/01/26 00:43:33;;;;;;;170.07;27.20;;;3.90;99.90;;;;;;4860568;29;20040;-65
2022/01/26 00:46:00;;;;;;;168.63;26.20;;;4.00;99.90;;;;;;4858559;29;20037;-65
2022/01/26 00:48:26;;;;;;;180.77;26.20;;;3.90;99.90;;;;;;4841275;29;20040;-65
2022/01/26 00:50:53;;;;;;;165.23;25.23;;;3.90;99.90;;;;;;4858428;29;20447;-65
2022/01/26 00:53:19;;;;;;;169.55;29.38;;;3.90;99.90;;;;;;4861274;29;20045;-65
2022/01/26 00:55:45;;;;;;;168.55;28.00;;;3.90;99.90;;;;;;4866541;29;20131;-65
2022/01/26 00:58:10;;;;;;;169.50;25.65;;;3.90;99.90;;;;;;4859653;29;20474;-65
2022/01/26 01:00:36;;;;;;;174.77;25.85;;;3.90;99.90;;;;;;4862582;29;20033;-65
2022/01/26 01:03:02;;;;;;;175.20;27.13;;;3.90;99.90;;;;;;4854398;29;20502;-65
2022/01/26 01:05:34;;;;;;;171.80;26.00;;;3.70;99.90;;;;;;4856619;29;20069;-65
2022/01/26 01:08:05;;;;;;;174.30;27.65;;;3.90;99.90;;;;;;4859235;29;20029;-65
2022/01/26 01:10:31;;;;;;;170.30;27.15;;;3.90;99.90;;;;;;4846366;29;20116;-65
2022/01/26 01:12:58;;;;;;;175.05;27.05;;;3.90;99.90;;;;;;4848420;29;20040;-65
2022/01/26 01:15:24;;;;;;;179.23;27.73;;;3.90;99.90;;;;;;4861059;29;20772;-65
2022/01/26 01:17:53;;;;;;;172.15;27.27;;;3.90;99.90;;;;;;4862314;29;20037;-64
2022/01/26 01:26:09;;;;;;;180.13;27.48;;;3.90;99.90;;;;;;4850673;29;19923;-64
2022/01/26 01:31:15;;;;;;;182.37;28.37;;;3.90;99.90;;;;;;4860536;29;20037;-64
2022/01/26 01:33:45;;;;;;;181.20;29.63;;;3.90;99.90;;;;;;4842033;29;20041;-64
2022/01/26 01:36:12;;;;;;;174.02;27.60;;;3.90;99.90;;;;;;4864675;29;20797;-64
2022/01/26 01:38:40;;;;;;;189.10;29.50;;;4.00;99.90;;;;;;4868899;29;20025;-64
2022/01/26 01:41:06;;;;;;;189.20;30.42;;;3.90;99.90;;;;;;4860189;29;20073;-64
2022/01/26 01:43:31;;;;;;;189.02;30.63;;;3.90;99.90;;;;;;4863859;29;20064;-64
2022/01/26 01:45:57;;;;;;;198.88;28.98;;;3.90;99.90;;;;;;4861209;29;20029;-64
2022/01/26 01:48:23;;;;;;;167.68;28.48;;;3.90;99.90;;;;;;4857253;29;20581;-64
2022/01/26 01:50:51;;;;;;;181.38;29.05;;;3.90;99.90;;;;;;4862220;29;20040;-64
2022/01/26 01:53:17;;;;;;;166.65;27.63;;;3.90;99.90;;;;;;4858432;29;20029;-64
2022/01/26 01:55:42;;;;;;;178.85;28.05;;;3.90;99.90;;;;;;4841272;29;20084;-64
2022/01/26 01:58:08;;;;;;;183.70;28.38;;;3.90;99.90;;;;;;4860606;29;20037;-64
2022/01/26 02:00:33;;;;;;;165.60;29.00;;;3.80;99.90;;;;;;4840028;29;20565;-65
2022/01/26 02:03:00;;;;;;;150.13;28.13;;;3.80;99.90;;;;;;4865790;29;20029;-65
2022/01/26 02:05:25;;;;;;;178.88;26.90;;;3.80;99.90;;;;;;4863874;29;20033;-65
2022/01/26 02:07:51;;;;;;;160.93;27.85;;;3.80;99.90;;;;;;4863278;29;20025;-64
2022/01/26 02:10:16;;;;;;;157.45;28.08;;;3.80;99.90;;;;;;4862803;29;20425;-65
2022/01/26 02:12:47;;;;;;;151.50;26.77;;;3.80;99.90;;;;;;4845076;29;20697;-65
2022/01/26 02:15:21;;;;;;;168.98;27.80;;;3.80;99.90;;;;;;4861528;29;20498;-65
2022/01/26 02:56:05;;;;;;;110.45;22.48;;;3.50;99.90;;;;;;4840752;29;20051;-65
2022/01/26 03:03:58;;;;;;;91.97;21.02;;;3.40;99.90;;;;;;4861782;29;20028;-65
2022/01/26 03:06:31;;;;;;;91.93;19.65;;;3.40;99.90;;;;;;4861532;29;20439;-64
2022/01/26 03:09:03;;;;;;;88.30;20.02;;;3.40;99.90;;;;;;4861290;29;20486;-65
2022/01/26 03:11:32;;;;;;;89.70;20.15;;;3.40;99.90;;;;;;4857062;29;20049;-64
2022/01/26 03:16:53;;;;;;;98.07;19.85;;;3.40;99.90;;;;;;4821669;29;20045;-65
2022/01/26 03:19:35;;;;;;;89.90;18.85;;;3.40;99.90;;;;;;4844274;29;20041;-65
2022/01/26 03:35:16;;;;;;;69.60;15.10;;;3.40;99.90;;;;;;4859264;29;20134;-65
2022/01/26 03:37:50;;;;;;;69.38;15.77;;;3.30;99.90;;;;;;4843161;29;20776;-65
2022/01/26 03:40:16;;;;;;;67.05;15.82;;;3.30;99.90;;;;;;4858292;29;20105;-65
2022/01/26 03:42:41;;;;;;;73.38;16.33;;;3.30;99.90;;;;;;4849470;29;20060;-64
2022/01/26 03:45:07;;;;;;;62.50;15.35;;;3.40;99.90;;;;;;4858106;29;20033;-64
2022/01/26 03:47:32;;;;;;;69.20;14.25;;;3.40;99.90;;;;;;4848760;29;20033;-64
2022/01/26 03:49:58;;;;;;;56.03;14.93;;;3.40;99.90;;;;;;4845839;29;20546;-65
2022/01/26 03:52:23;;;;;;;55.00;13.70;;;3.30;99.90;;;;;;4858283;29;20045;-65
2022/01/26 03:54:49;;;;;;;51.25;13.75;;;3.30;99.90;;;;;;4860857;29;20036;-65
2022/01/26 03:57:14;;;;;;;53.35;14.48;;;3.30;99.90;;;;;;4858679;29;20037;-64
2022/01/26 03:59:40;;;;;;;67.95;14.40;;;3.30;99.90;;;;;;4859595;29;20595;-64
2022/01/26 04:02:06;;;;;;;58.95;14.05;;;3.20;99.90;;;;;;4856676;29;20037;-65
2022/01/26 04:04:37;;;;;;;54.63;12.35;;;3.20;99.90;;;;;;4861565;29;20115;-65
2022/01/26 04:07:02;;;;;;;52.63;12.63;;;3.20;99.90;;;;;;4840406;29;20491;-64
2022/01/26 04:09:28;;;;;;;43.92;11.30;;;3.20;99.90;;;;;;4861033;29;20042;-65
2022/01/26 04:11:54;;;;;;;48.10;12.30;;;3.20;99.90;;;;;;4863078;29;20057;-65
2022/01/26 04:14:23;;;;;;;55.03;13.40;;;3.20;99.90;;;;;;4862110;29;20473;-64
2022/01/26 04:16:49;;;;;;;50.50;11.13;;;3.10;99.90;;;;;;4859710;29;20091;-65
2022/01/26 04:19:15;;;;;;;57.67;12.38;;;3.10;99.90;;;;;;4844696;29;20177;-65
2022/01/26 04:24:35;;;;;;;55.53;12.32;;;3.10;99.90;;;;;;4847770;29;20048;-64
2022/01/26 04:27:06;;;;;;;52.35;12.23;;;3.10;99.90;;;;;;4860824;29;20052;-64
2022/01/26 04:29:34;;;;;;;58.45;13.70;;;3.10;99.90;;;;;;4843186;29;20034;-65
2022/01/26 04:32:00;;;;;;;57.25;13.10;;;3.00;99.90;;;;;;4858313;29;20052;-64
2022/01/26 04:34:25;;;;;;;49.92;13.48;;;3.00;99.90;;;;;;4858592;29;20816;-65
2022/01/26 04:39:22;;;;;;;56.90;12.63;;;3.00;99.90;;;;;;4864075;29;20085;-68
2022/01/26 04:41:59;;;;;;;52.03;11.05;;;3.00;99.90;;;;;;4859971;29;20037;-68
2022/01/26 04:44:34;;;;;;;55.97;12.52;;;3.00;99.90;;;;;;4862747;29;20049;-68
2022/01/26 04:46:59;;;;;;;52.17;13.15;;;3.00;99.90;;;;;;4861435;29;20080;-68
2022/01/26 04:49:25;;;;;;;55.25;12.57;;;3.00;99.90;;;;;;4844656;29;20045;-68
2022/01/26 04:51:50;;;;;;;59.97;13.60;;;2.90;99.90;;;;;;4864866;29;20072;-68
2022/01/26 04:54:16;;;;;;;58.15;13.05;;;3.00;99.90;;;;;;4865567;29;20041;-68
2022/01/26 04:56:41;;;;;;;55.17;12.65;;;2.90;99.90;;;;;;4862412;29;20025;-68
2022/01/26 04:59:07;;;;;;;65.38;14.25;;;2.90;99.90;;;;;;4864266;29;20065;-68
2022/01/26 05:04:42;;;;;;;61.90;13.90;;;2.90;99.90;;;;;;4849827;29;20031;-68
2022/01/26 05:07:08;;;;;;;81.28;15.30;;;3.00;99.90;;;;;;4856157;29;20033;-68
2022/01/26 05:09:33;;;;;;;73.25;15.23;;;2.90;99.90;;;;;;4841219;29;20033;-68
2022/01/26 05:12:01;;;;;;;70.47;14.48;;;2.90;99.90;;;;;;4862970;29;20842;-68
2022/01/26 05:14:26;;;;;;;79.47;16.33;;;2.90;99.90;;;;;;4859065;29;20042;-68
2022/01/26 05:16:52;;;;;;;94.90;17.63;;;2.90;99.90;;;;;;4843354;29;20104;-68
2022/01/26 05:19:17;;;;;;;88.30;16.55;;;2.90;99.90;;;;;;4837684;29;20100;-68
2022/01/26 05:21:43;;;;;;;86.38;17.60;;;2.90;99.90;;;;;;4867011;29;20033;-68
2022/01/26 05:24:10;;;;;;;88.55;17.45;;;2.90;99.90;;;;;;4862573;29;20037;-68
2022/01/26 05:26:36;;;;;;;86.07;17.25;;;2.90;99.90;;;;;;4849764;29;20541;-68
2022/01/26 05:29:01;;;;;;;87.63;18.20;;;2.90;99.90;;;;;;4859258;29;20084;-67
2022/01/26 05:31:27;;;;;;;80.68;16.40;;;2.90;99.90;;;;;;4850782;29;20984;-68
2022/01/26 05:33:54;;;;;;;92.30;18.67;;;2.80;99.90;;;;;;4845711;29;20045;-68
2022/01/26 05:36:19;;;;;;;91.03;17.80;;;2.80;99.90;;;;;;4857806;29;20041;-68
2022/01/26 05:38:44;;;;;;;89.47;18.02;;;2.80;99.90;;;;;;4867036;29;20028;-68
2022/01/26 05:41:10;;;;;;;91.38;18.13;;;2.80;99.90;;;;;;4863473;29;20037;-68
2022/01/26 05:43:35;;;;;;;84.63;18.52;;;2.80;99.90;;;;;;4848032;29;20065;-68
2022/01/26 05:46:06;;;;;;;85.97;17.83;;;2.80;99.90;;;;;;4862509;29;20037;-68
2022/01/26 05:48:33;;;;;;;98.35;18.58;;;2.80;99.90;;;;;;4865770;29;20037;-69
2022/01/26 05:51:06;;;;;;;86.18;17.33;;;2.80;99.90;;;;;;4865137;29;20040;-68
2022/01/26 05:53:31;;;;;;;79.50;17.58;;;2.80;99.90;;;;;;4854205;29;20041;-68
2022/01/26 05:55:58;;;;;;;81.82;16.25;;;2.80;99.90;;;;;;4864323;29;20086;-68
2022/01/26 05:58:23;;;;;;;77.45;18.00;;;2.80;99.90;;;;;;4858229;29;20041;-68
2022/01/26 06:00:49;;;;;;;81.45;17.48;;;2.80;99.90;;;;;;4859792;29;20394;-68
2022/01/26 06:03:14;;;;;;;77.00;17.50;;;2.80;99.90;;;;;;4863374;29;20033;-68
2022/01/26 06:05:40;;;;;;;75.15;17.75;;;2.80;99.90;;;;;;4862099;29;20029;-68
2022/01/26 06:08:05;;;;;;;81.78;16.63;;;2.80;99.90;;;;;;4836587;29;20065;-68
2022/01/26 06:10:31;;;;;;;82.93;16.23;;;2.80;99.90;;;;;;4859327;29;20033;-68
2022/01/26 06:12:56;;;;;;;80.05;17.23;;;2.80;99.90;;;;;;4845754;29;20451;-68
2022/01/26 06:15:22;;;;;;;80.28;17.83;;;2.80;99.90;;;;;;4858421;29;20153;-68
2022/01/26 06:17:47;;;;;;;82.00;16.88;;;2.80;99.90;;;;;;4848338;29;20024;-68
2022/01/26 06:20:13;;;;;;;82.55;18.33;;;2.80;99.90;;;;;;4861227;29;20079;-68
2022/01/26 06:22:38;;;;;;;81.88;16.23;;;2.90;99.90;;;;;;4861850;29;20033;-68
2022/01/26 06:25:06;;;;;;;88.03;17.48;;;2.80;99.90;;;;;;4867662;29;20025;-68
2022/01/26 06:27:32;;;;;;;73.57;17.58;;;2.80;99.90;;;;;;4857400;29;20037;-68
2022/01/26 06:29:57;;;;;;;81.72;19.10;;;2.80;99.90;;;;;;4846075;29;20085;-68
2022/01/26 06:32:22;;;;;;;81.05;19.17;;;2.80;99.90;;;;;;4869255;29;20076;-68
2022/01/26 06:34:48;;;;;;;79.90;19.88;;;2.80;99.90;;;;;;4860269;29;20028;-69
2022/01/26 06:37:13;;;;;;;86.13;20.02;;;2.80;99.90;;;;;;4864309;29;20037;-68
2022/01/26 06:39:39;;;;;;;88.65;18.98;;;2.80;99.90;;;;;;4850686;29;20064;-68
2022/01/26 06:42:11;;;;;;;84.22;18.73;;;2.80;99.90;;;;;;4843324;29;20033;-68
2022/01/26 06:44:47;;;;;;;76.72;17.85;;;2.80;99.90;;;;;;4863520;29;20055;-68
2022/01/26 06:49:38;;;;;;;79.22;18.27;;;2.80;99.90;;;;;;4861644;29;20889;-68
2022/01/26 06:52:03;;;;;;;78.22;19.52;;;2.80;99.90;;;;;;4858520;29;20186;-68
2022/01/26 06:54:29;;;;;;;79.53;19.23;;;2.80;99.90;;;;;;4862369;29;20045;-68
2022/01/26 06:56:54;;;;;;;71.78;17.30;;;2.80;99.90;;;;;;4859652;29;20088;-68
2022/01/26 06:59:20;;;;;;;79.47;18.67;;;2.80;99.90;;;;;;4847439;29;20079;-68
2022/01/26 07:01:46;;;;;;;85.70;19.35;;;2.80;99.90;;;;;;4835873;29;20688;-68
2022/01/26 07:04:11;;;;;;;72.05;18.48;;;2.80;99.90;;;;;;4848615;29;20057;-68
2022/01/26 07:06:37;;;;;;;73.10;17.13;;;2.80;99.90;;;;;;4849161;29;20032;-67
2022/01/26 07:09:02;;;;;;;65.30;16.58;;;2.80;99.90;;;;;;4863922;29;20041;-68
2022/01/26 07:11:28;;;;;;;73.45;18.98;;;2.80;99.90;;;;;;4860936;29;20219;-68
2022/01/26 07:13:54;;;;;;;78.93;18.95;;;2.80;99.90;;;;;;4865142;29;20040;-68
2022/01/26 07:21:48;;;;;;;64.47;17.90;;;2.90;99.90;;;;;;4862412;29;20104;-68
2022/01/26 07:24:13;;;;;;;69.32;18.33;;;2.80;99.90;;;;;;4842695;29;20045;-68
2022/01/26 07:26:39;;;;;;;58.97;16.55;;;3.00;99.90;;;;;;4861931;29;20033;-68
2022/01/26 07:29:10;;;;;;;62.53;16.70;;;2.80;99.90;;;;;;4862769;29;20486;-68
2022/01/26 07:31:36;;;;;;;72.68;19.15;;;2.80;99.90;;;;;;4856568;29;20127;-68
2022/01/26 07:34:02;;;;;;;67.03;17.08;;;2.80;99.90;;;;;;4848479;29;20052;-68
2022/01/26 07:36:27;;;;;;;62.80;16.92;;;2.80;99.90;;;;;;4851899;29;20037;-68
2022/01/26 07:38:55;;;;;;;71.32;17.27;;;2.80;99.90;;;;;;4839183;29;20037;-68
2022/01/26 07:41:20;;;;;;;62.38;17.80;;;2.80;99.90;;;;;;4861126;29;20034;-67
2022/01/26 07:43:46;;;;;;;67.50;17.85;;;2.80;99.90;;;;;;4862229;29;20165;-68
2022/01/26 07:46:11;;;;;;;59.78;16.77;;;2.90;99.90;;;;;;4831316;29;20036;-68
2022/01/26 07:48:37;;;;;;;63.47;16.98;;;2.90;99.90;;;;;;4865836;29;20029;-68
2022/01/26 07:51:02;;;;;;;59.28;15.93;;;2.80;99.90;;;;;;4837370;29;20566;-68
2022/01/26 07:53:28;;;;;;;58.63;16.45;;;2.90;99.90;;;;;;4846709;29;20041;-68
2022/01/26 07:55:56;;;;;;;74.50;17.90;;;2.90;99.90;;;;;;4852928;29;20029;-68
2022/01/26 07:58:21;;;;;;;63.08;16.60;;;2.90;99.90;;;;;;4869318;29;20037;-68
2022/01/26 08:00:47;;;;;;;65.20;16.98;;;2.90;99.90;;;;;;4867246;29;20557;-68
2022/01/26 08:03:12;;;;;;;57.08;16.42;;;2.90;99.90;;;;;;4842858;29;20034;-68
2022/01/26 08:05:38;;;;;;;52.42;16.15;;;2.90;99.90;;;;;;4860400;29;20034;-68
2022/01/26 08:08:03;;;;;;;58.47;16.73;;;2.90;99.90;;;;;;4844251;29;20033;-68
2022/01/26 08:10:29;;;;;;;57.55;15.60;;;2.90;99.90;;;;;;4861825;29;20055;-68
2022/01/26 08:12:54;;;;;;;59.65;16.67;;;2.90;99.90;;;;;;4842810;29;20664;-68
2022/01/26 08:15:20;;;;;;;58.53;17.70;;;2.90;99.90;;;;;;4862592;29;20041;-65
2022/01/26 08:17:45;;;;;;;61.30;16.85;;;2.90;99.90;;;;;;4859711;29;20486;-66
2022/01/26 08:20:11;;;;;;;56.30;15.82;;;2.90;99.90;;;;;;4856432;29;20554;-65
2022/01/26 08:22:36;;;;;;;63.97;15.60;;;2.90;99.90;;;;;;4862083;29;20124;-65
2022/01/26 08:25:02;;;;;;;63.33;16.92;;;3.00;99.90;;;;;;4873597;29;20036;-65
2022/01/26 08:27:33;;;;;;;58.92;17.23;;;3.00;99.90;;;;;;4849546;29;20107;-65
2022/01/26 08:30:06;;;;;;;67.40;17.38;;;3.00;99.90;;;;;;4849503;29;20077;-65
2022/01/26 08:32:32;;;;;;;59.47;16.65;;;3.00;99.90;;;;;;4849968;29;20039;-64
2022/01/26 08:34:57;;;;;;;59.03;16.85;;;3.00;99.90;;;;;;4850641;29;20806;-65
2022/01/26 08:37:23;;;;;;;72.45;22.10;;;3.10;99.90;;;;;;4866232;29;20040;-65
2022/01/26 08:39:48;;;;;;;62.58;16.92;;;3.10;99.90;;;;;;4865892;29;20421;-64
2022/01/26 08:42:14;;;;;;;50.38;16.10;;;3.20;99.90;;;;;;4866424;29;20066;-65
2022/01/26 08:44:39;;;;;;;53.30;16.67;;;3.10;99.90;;;;;;4866161;29;20032;-65
2022/01/26 08:47:05;;;;;;;55.25;15.00;;;3.20;99.90;;;;;;4851157;29;20767;-65
2022/01/26 08:49:31;;;;;;;55.03;15.48;;;3.20;99.90;;;;;;4863843;29;20825;-65
2022/01/26 08:51:56;;;;;;;48.60;15.30;;;3.10;99.90;;;;;;4872581;29;20056;-65
2022/01/26 08:54:22;;;;;;;49.88;14.25;;;3.10;99.90;;;;;;4871563;29;20055;-65
2022/01/26 08:56:48;;;;;;;52.03;14.43;;;3.20;99.90;;;;;;4867878;29;20925;-65
2022/01/26 08:59:13;;;;;;;47.53;14.45;;;3.30;99.90;;;;;;4853460;29;20037;-65
2022/01/26 09:01:39;;;;;;;54.00;17.00;;;3.20;99.90;;;;;;4845796;29;20037;-65
2022/01/26 09:04:04;;;;;;;46.20;14.57;;;3.20;99.90;;;;;;4865840;29;20028;-65
2022/01/26 09:06:32;;;;;;;48.72;15.40;;;3.30;99.90;;;;;;4865433;29;20085;-65
2022/01/26 09:09:03;;;;;;;54.83;15.32;;;3.20;99.90;;;;;;4862007;29;20033;-65
2022/01/26 09:11:29;;;;;;;48.50;14.60;;;3.30;99.90;;;;;;4865762;29;20404;-65
2022/01/26 09:13:59;;;;;;;51.50;14.13;;;3.30;99.90;;;;;;4850786;29;20482;-65
2022/01/26 09:16:25;;;;;;;51.95;14.95;;;3.30;99.90;;;;;;4836037;29;20044;-65
2022/01/26 09:18:53;;;;;;;47.75;14.45;;;3.30;99.90;;;;;;4847440;29;20078;-65
2022/01/26 09:21:19;;;;;;;57.40;17.73;;;3.30;99.90;;;;;;4847263;29;20388;-65
2022/01/26 09:23:44;;;;;;;49.75;15.55;;;3.20;99.90;;;;;;4844774;29;20025;-65
2022/01/26 09:26:10;;;;;;;42.42;14.38;;;3.20;99.90;;;;;;4861879;29;20879;-65
2022/01/26 09:28:35;;;;;;;41.13;12.88;;;3.20;99.90;;;;;;4863639;29;20044;-65
2022/01/26 09:31:01;;;;;;;51.13;15.10;;;3.20;99.90;;;;;;4849242;29;20033;-65
2022/01/26 09:33:26;;;;;;;40.17;14.68;;;3.30;99.90;;;;;;4848473;29;20042;-66
2022/01/26 09:35:52;;;;;;;38.50;13.20;;;3.30;99.90;;;;;;4861620;29;20112;-65
2022/01/26 09:38:17;;;;;;;44.45;15.18;;;3.30;99.90;;;;;;4843913;29;20047;-65
2022/01/26 09:40:43;;;;;;;44.92;13.10;;;3.30;99.90;;;;;;4852618;29;20494;-65
2022/01/26 09:43:08;;;;;;;44.45;15.35;;;3.30;99.90;;;;;;4850698;29;20570;-65
2022/01/26 09:45:35;;;;;;;43.33;14.80;;;3.30;99.90;;;;;;4863535;29;20033;-65
2022/01/26 09:48:00;;;;;;;42.50;13.73;;;3.30;99.90;;;;;;4866299;29;20434;-65
2022/01/26 09:50:26;;;;;;;49.63;14.15;;;3.30;99.90;;;;;;4847713;29;20043;-66
2022/01/26 09:52:54;;;;;;;40.33;14.20;;;3.30;99.90;;;;;;4844796;29;20097;-66
2022/01/26 09:55:19;;;;;;;34.83;12.70;;;3.50;99.90;;;;;;4860922;29;20053;-66
2022/01/26 09:57:44;;;;;;;38.00;12.60;;;3.40;99.90;;;;;;4859109;29;20860;-66
2022/01/26 10:00:11;;;;;;;35.03;13.32;;;3.50;99.90;;;;;;4837938;29;20566;-66
2022/01/26 10:02:39;;;;;;;36.50;13.30;;;3.40;99.90;;;;;;4859063;29;20046;-66
2022/01/26 10:05:06;;;;;;;38.15;12.07;;;3.40;99.90;;;;;;4844856;29;20718;-66
2022/01/26 10:17:51;;;;;;;32.92;10.73;;;3.50;99.90;;;;;;4861854;29;20029;-66
2022/01/26 10:20:17;;;;;;;30.98;11.27;;;3.50;99.90;;;;;;4849893;29;20073;-66
2022/01/26 10:22:43;;;;;;;33.35;11.70;;;3.50;99.90;;;;;;4860883;29;20037;-66
2022/01/26 10:25:08;;;;;;;35.30;12.60;;;3.50;99.90;;;;;;4843792;29;20096;-65
2022/01/26 10:27:34;;;;;;;34.10;12.95;;;3.60;99.90;;;;;;4862667;29;20044;-66
2022/01/26 10:29:59;;;;;;;34.28;12.05;;;3.70;99.90;;;;;;4860192;29;20039;-63
2022/01/26 10:32:25;;;;;;;32.35;12.13;;;3.90;99.90;;;;;;4866114;29;20554;-63
2022/01/26 10:34:50;;;;;;;31.00;11.88;;;3.90;99.90;;;;;;4867111;29;20033;-63
2022/01/26 10:37:16;;;;;;;30.92;10.15;;;3.80;99.90;;;;;;4862931;29;20710;-64
2022/01/26 10:39:49;;;;;;;30.05;11.02;;;3.80;99.90;;;;;;4861618;29;20105;-64
2022/01/26 10:42:17;;;;;;;31.05;9.80;;;3.70;99.90;;;;;;4859660;29;20030;-64
2022/01/26 10:44:51;;;;;;;27.25;9.73;;;3.50;99.90;;;;;;4861399;29;20033;-64
2022/01/26 10:47:16;;;;;;;23.92;9.50;;;3.50;99.90;;;;;;4844350;29;20029;-64
2022/01/26 10:52:07;;;;;;;27.02;10.60;;;3.60;99.90;;;;;;4862980;29;20112;-65
2022/01/26 10:54:39;;;;;;;24.75;9.98;;;3.60;99.90;;;;;;4848417;29;20450;-64
2022/01/26 10:57:05;;;;;;;25.42;9.50;;;3.60;99.90;;;;;;4861611;29;20100;-64
2022/01/26 10:59:30;;;;;;;26.00;10.27;;;3.70;99.90;;;;;;4853643;29;20993;-64
2022/01/26 11:01:59;;;;;;;20.02;8.63;;;3.70;99.90;;;;;;4860991;29;20722;-64
2022/01/26 11:04:25;;;;;;;14.70;6.80;;;3.80;99.90;;;;;;4863198;29;20075;-64
2022/01/26 11:06:50;;;;;;;15.88;6.95;;;3.80;99.90;;;;;;4858197;29;20116;-64
2022/01/26 11:09:17;;;;;;;18.95;7.38;;;3.70;99.90;;;;;;4859285;29;20036;-64
2022/01/26 11:11:43;;;;;;;22.58;7.18;;;3.70;99.90;;;;;;4845378;29;20037;-64
2022/01/26 11:14:08;;;;;;;22.58;7.68;;;3.60;99.90;;;;;;4845832;29;20037;-64
2022/01/26 11:16:36;;;;;;;16.45;6.35;;;3.50;99.90;;;;;;4861751;29;20237;-65
2022/01/26 11:19:05;;;;;;;19.20;6.88;;;3.40;99.90;;;;;;4867411;29;20053;-65
2022/01/26 11:21:31;;;;;;;18.05;6.88;;;2.40;99.90;;;;;;4860800;29;20224;-66
2022/01/26 11:23:56;;;;;;;38.15;15.55;;;3.10;99.90;;;;;;4863968;29;20033;-64
2022/01/26 11:26:22;;;;;;;19.02;7.82;;;3.00;99.90;;;;;;4860655;29;20817;-66
2022/01/26 11:28:47;;;;;;;20.85;7.57;;;3.00;99.90;;;;;;4860928;29;20120;-63
2022/01/26 11:31:13;;;;;;;25.98;10.27;;;3.00;99.90;;;;;;4863898;29;20029;-63
2022/01/26 11:33:38;;;;;;;26.20;8.02;;;3.00;99.90;;;;;;4864679;29;20040;-64
2022/01/26 11:36:04;;;;;;;27.38;7.93;;;3.00;99.90;;;;;;4842192;29;20092;-64
2022/01/26 11:46:29;;;;;;;31.75;9.43;;;2.90;99.90;;;;;;4864252;29;20033;-64
2022/01/26 11:48:54;;;;;;;33.28;8.80;;;2.90;99.90;;;;;;4849792;29;20497;-66
2022/01/26 11:51:20;;;;;;;29.00;8.63;;;2.80;99.90;;;;;;4831112;29;20033;-64
2022/01/26 11:53:45;;;;;;;33.78;9.82;;;2.80;99.90;;;;;;4862549;29;20037;-65
2022/01/26 11:56:13;;;;;;;32.88;8.93;;;2.70;99.90;;;;;;4861360;29;20868;-66
2022/01/26 11:58:39;;;;;;;31.05;8.68;;;2.70;99.90;;;;;;4834300;29;20029;-66
2022/01/26 12:01:13;;;;;;;30.75;8.63;;;2.70;99.90;;;;;;4863781;29;20088;-66
2022/01/26 12:03:44;;;;;;;34.45;8.43;;;2.70;99.90;;;;;;4846774;29;20033;-64
2022/01/26 12:06:21;;;;;;;33.60;10.70;;;2.70;99.90;;;;;;4855904;29;20572;-64
2022/01/26 12:08:47;;;;;;;23.48;7.45;;;2.60;99.90;;;;;;4844897;29;20033;-65
2022/01/26 12:11:12;;;;;;;33.80;8.32;;;2.60;99.90;;;;;;4860341;29;20021;-65
2022/01/26 12:13:39;;;;;;;28.23;8.90;;;2.60;99.90;;;;;;4859590;29;20192;-65
2022/01/26 12:16:18;;;;;;;31.92;9.23;;;2.50;99.90;;;;;;4858670;29;20759;-63
2022/01/26 12:18:54;;;;;;;31.25;9.13;;;2.50;99.90;;;;;;4862044;29;20040;-65
2022/01/26 12:32:29;;;;;;;34.38;10.23;;;2.40;99.90;;;;;;4858741;29;20152;-69
2022/01/26 12:35:09;;;;;;;47.97;14.40;;;2.40;99.90;;;;;;4865031;29;20133;-68
2022/01/26 12:37:40;;;;;;;43.08;10.80;;;2.40;99.90;;;;;;4838419;29;20053;-69
2022/01/26 12:45:17;;;;;;;53.75;14.25;;;2.40;99.90;;;;;;4856470;29;20113;-69
2022/01/26 12:47:42;;;;;;;57.53;13.00;;;2.40;99.90;;;;;;4842759;29;20030;-69
2022/01/26 12:50:08;;;;;;;46.78;12.30;;;2.40;99.90;;;;;;4857599;29;20025;-68
2022/01/26 12:52:33;;;;;;;50.05;12.20;;;2.40;99.90;;;;;;4859352;29;20044;-69
2022/01/26 12:54:59;;;;;;;55.85;12.90;;;2.30;99.90;;;;;;4839844;29;20081;-68
2022/01/26 12:57:25;;;;;;;50.03;14.00;;;2.30;99.90;;;;;;4825295;29;20635;-69
2022/01/26 12:59:51;;;;;;;59.70;14.05;;;2.30;99.90;;;;;;4844128;29;20037;-68
2022/01/26 13:02:16;;;;;;;50.83;13.02;;;2.20;99.90;;;;;;4858602;29;20044;-69
2022/01/26 13:04:42;;;;;;;51.72;12.35;;;2.20;99.90;;;;;;4862341;29;20035;-67
2022/01/26 13:07:07;;;;;;;56.65;13.23;;;2.20;99.90;;;;;;4830470;29;20362;-68
2022/01/26 13:09:33;;;;;;;53.20;13.45;;;2.20;99.90;;;;;;4847233;29;20033;-67
2022/01/26 13:11:58;;;;;;;67.28;16.17;;;2.20;99.90;;;;;;4862365;29;20044;-68
2022/01/26 13:14:27;;;;;;;65.53;16.63;;;2.20;99.90;;;;;;4862634;29;20119;-68
2022/01/26 13:16:52;;;;;;;62.40;15.90;;;2.20;99.90;;;;;;4865098;29;20025;-69
2022/01/26 13:24:25;;;;;;;71.75;16.17;;;2.20;99.90;;;;;;4861559;29;20116;-68
2022/01/26 13:26:57;;;;;;;61.72;14.25;;;2.20;99.90;;;;;;4861089;29;20507;-68
2022/01/26 13:29:34;;;;;;;66.80;14.90;;;2.20;99.90;;;;;;4858994;29;20596;-68
2022/01/26 13:37:24;;;;;;;75.18;18.38;;;2.20;99.90;;;;;;4858335;29;20132;-69
2022/01/26 13:39:59;;;;;;;70.43;16.20;;;2.10;99.90;;;;;;4859317;29;20044;-68
2022/01/26 13:45:42;;;;;;;77.07;18.67;;;2.10;99.90;;;;;;4859635;29;20036;-68
2022/01/26 13:55:42;;;;;;;87.80;19.00;;;2.00;99.90;;;;;;4866177;29;20045;-68
2022/01/26 13:58:41;;;;;;;92.72;18.83;;;2.00;99.90;;;;;;4862012;29;20037;-69
2022/01/26 14:01:16;;;;;;;77.60;17.38;;;1.90;99.90;;;;;;4861133;29;20495;-69
2022/01/26 14:03:41;;;;;;;72.68;17.88;;;1.90;99.90;;;;;;4861092;29;20033;-69
2022/01/26 14:06:09;;;;;;;75.10;16.85;;;1.90;99.90;;;;;;4832245;29;20375;-69
2022/01/26 14:08:35;;;;;;;78.75;17.83;;;1.80;99.90;;;;;;4827208;29;20043;-69
2022/01/26 14:11:00;;;;;;;70.07;16.17;;;1.80;99.90;;;;;;4862252;29;20037;-68
2022/01/26 14:13:27;;;;;;;79.38;17.52;;;1.80;99.90;;;;;;4846088;29;20469;-68
2022/01/26 14:15:55;;;;;;;66.70;16.33;;;1.80;99.90;;;;;;4861679;29;20156;-69
2022/01/26 14:20:52;;;;;;;68.43;16.90;;;1.80;99.90;;;;;;4865828;29;20040;-69
2022/01/26 14:26:06;;;;;;;;;;;1.80;99.90;;;;;;4850953;29;20045;-69
2022/01/26 14:28:35;;;;;;;59.08;12.38;;;1.90;99.90;;;;;;4848595;29;19916;-69
2022/01/26 14:31:24;;;;;;;67.10;17.33;;;2.00;99.90;;;;;;4841953;29;20045;-68
2022/01/26 14:34:52;;;;;;;56.92;13.70;;;2.00;99.90;;;;;;4863529;29;20060;-69
2022/01/26 14:39:29;;;;;;;62.78;13.27;;;2.00;99.90;;;;;;4843572;29;20156;-68
2022/01/26 15:33:50;;;;;;;117.45;29.80;;;2.10;99.90;;;;;;4862012;29;20143;-64
2022/01/26 15:42:23;;;;;;;146.15;35.90;;;2.10;99.90;;;;;;4860769;29;20091;-64
2022/01/26 15:48:41;;;;;;;137.75;26.67;;;2.10;99.90;;;;;;4844861;29;20044;-64
2022/01/26 15:50:36;;;;;;;172.38;43.67;;;2.10;99.90;;;;;;4859504;29;20061;-65
2022/01/26 16:07:04;;;;;;;143.27;33.33;;;2.00;99.90;;;;;;4862317;29;20446;-64
2022/01/26 16:20:25;;;;;;;142.40;33.72;;;2.10;99.90;;;;;;4850128;29;20037;-68
2022/01/26 16:37:02;;;;;;;146.23;34.17;;;2.10;99.90;;;;;;4863465;29;20108;-68
2022/01/26 16:53:31;;;;;;;156.55;36.13;;;2.10;99.90;;;;;;4868594;29;20024;-67
2022/01/26 17:21:04;;;;;;;158.15;38.47;;;2.20;99.90;;;;;;4843598;29;20036;-68
2022/01/26 17:47:46;;;;;;;173.75;38.35;;;2.30;99.90;;;;;;4855758;29;20037;-66
2022/01/26 18:04:04;;;;;;;161.45;37.25;;;2.30;99.90;;;;;;4851632;29;20739;-68
2022/01/26 18:33:21;;;;;;;140.88;37.05;;;2.50;99.90;;;;;;4847551;29;20037;-66
2022/01/26 18:49:17;;;;;;;141.00;35.47;;;2.50;99.90;;;;;;4860520;29;20037;-65
2022/01/26 18:51:42;;;;;;;139.98;33.47;;;2.60;99.90;;;;;;4840293;29;20152;-65
2022/01/26 18:54:08;;;;;;;135.57;33.42;;;2.60;99.90;;;;;;4840862;29;20131;-65
2022/01/26 18:56:35;;;;;;;134.10;32.42;;;2.60;99.90;;;;;;4847906;29;20140;-66